sensor_id;sensor_type;location;lat;lon;timestamp;temperature;humidity
28244;DHT22;15510;52.512;13.300;2023-05-07T00:02:25;10.20;99.90
28244;DHT22;15510;52.512;13.300;2023-05-07T00:04:53;10.30;99.90
28244;DHT22;15510;52.512;13.300;2023-05-07T00:07:19;10.30;99.90
28244;DHT22;15510;52.512;13.300;2023-05-07T00:09:45;10.30;99.90
28244;DHT22;15510;52.512;13.300;2023-05-07T00:12:14;10.40;99.90
28244;DHT22;15510;52.512;13.300;2023-05-07T00:14:40;10.40;99.90
28244;DHT22;15510;52.512;13.300;2023-05-07T00:17:09;10.40;99.90
28244;DHT22;15510;52.512;13.300;2023-05-07T00:19:37;10.50;99.90
28244;DHT22;15510;52.512;13.300;2023-05-07T00:22:03;10.60;99.90
28244;DHT22;15510;52.512;13.300;2023-05-07T00:24:29;10.50;99.90
28244;DHT22;15510;52.512;13.300;2023-05-07T00:26:55;10.30;99.90
28244;DHT22;15510;52.512;13.300;2023-05-07T00:29:24;10.40;99.90
28244;DHT22;15510;52.512;13.300;2023-05-07T00:31:50;10.30;99.90
28244;DHT22;15510;52.512;13.300;2023-05-07T00:34:16;10.30;99.90
28244;DHT22;15510;52.512;13.300;2023-05-07T00:36:42;10.30;99.90
28244;DHT22;15510;52.512;13.300;2023-05-07T00:39:12;10.30;99.90
28244;DHT22;15510;52.512;13.300;2023-05-07T00:41:43;10.20;99.90
28244;DHT22;15510;52.512;13.300;2023-05-07T00:44:09;10.30;99.90
28244;DHT22;15510;52.512;13.300;2023-05-07T00:46:36;10.30;99.90
28244;DHT22;15510;52.512;13.300;2023-05-07T00:49:05;10.30;99.90
28244;DHT22;15510;52.512;13.300;2023-05-07T00:51:33;10.30;99.90
28244;DHT22;15510;52.512;13.300;2023-05-07T00:54:02;10.30;99.90
28244;DHT22;15510;52.512;13.300;2023-05-07T00:56:28;10.30;99.90
28244;DHT22;15510;52.512;13.300;2023-05-07T00:58:57;10.20;99.90
28244;DHT22;15510;52.512;13.300;2023-05-07T01:01:23;10.20;99.90
28244;DHT22;15510;52.512;13.300;2023-05-07T01:03:49;10.30;99.90
28244;DHT22;15510;52.512;13.300;2023-05-07T01:06:18;10.40;99.90
28244;DHT22;15510;52.512;13.300;2023-05-07T01:08:45;10.50;99.90
28244;DHT22;15510;52.512;13.300;2023-05-07T01:11:19;10.40;99.90
28244;DHT22;15510;52.512;13.300;2023-05-07T01:13:50;10.50;99.90
28244;DHT22;15510;52.512;13.300;2023-05-07T01:16:22;10.50;99.90
28244;DHT22;15510;52.512;13.300;2023-05-07T01:18:55;10.60;99.90
28244;DHT22;15510;52.512;13.300;2023-05-07T01:21:26;10.60;99.90
28244;DHT22;15510;52.512;13.300;2023-05-07T01:23:57;10.50;99.90
28244;DHT22;15510;52.512;13.300;2023-05-07T01:26:34;10.50;99.90
28244;DHT22;15510;52.512;13.300;2023-05-07T01:29:04;10.40;99.90
28244;DHT22;15510;52.512;13.300;2023-05-07T01:31:45;10.40;99.90
28244;DHT22;15510;52.512;13.300;2023-05-07T01:34:15;10.30;99.90
28244;DHT22;15510;52.512;13.300;2023-05-07T01:36:43;10.30;99.90
28244;DHT22;15510;52.512;13.300;2023-05-07T01:39:18;10.30;99.90
28244;DHT22;15510;52.512;13.300;2023-05-07T01:41:51;10.30;99.90
28244;DHT22;15510;52.512;13.300;2023-05-07T01:44:18;10.30;99.90
28244;DHT22;15510;52.512;13.300;2023-05-07T01:46:47;10.20;99.90
28244;DHT22;15510;52.512;13.300;2023-05-07T01:49:14;10.20;99.90
28244;DHT22;15510;52.512;13.300;2023-05-07T01:51:43;10.20;99.90
28244;DHT22;15510;52.512;13.300;2023-05-07T01:54:14;10.30;99.90
28244;DHT22;15510;52.512;13.300;2023-05-07T01:56:41;10.30;99.90
28244;DHT22;15510;52.512;13.300;2023-05-07T01:59:12;10.20;99.90
28244;DHT22;15510;52.512;13.300;2023-05-07T02:01:39;10.20;99.90
28244;DHT22;15510;52.512;13.300;2023-05-07T02:04:05;10.10;99.90
28244;DHT22;15510;52.512;13.300;2023-05-07T02:06:33;10.20;99.90
28244;DHT22;15510;52.512;13.300;2023-05-07T02:09:09;10.30;99.90
28244;DHT22;15510;52.512;13.300;2023-05-07T02:11:42;10.30;99.90
28244;DHT22;15510;52.512;13.300;2023-05-07T02:14:11;10.30;99.90
28244;DHT22;15510;52.512;13.300;2023-05-07T02:16:39;10.30;99.90
28244;DHT22;15510;52.512;13.300;2023-05-07T02:19:15;10.30;99.90
28244;DHT22;15510;52.512;13.300;2023-05-07T02:21:48;10.20;99.90
28244;DHT22;15510;52.512;13.300;2023-05-07T02:24:18;10.10;99.90
28244;DHT22;15510;52.512;13.300;2023-05-07T02:26:44;10.10;99.90
28244;DHT22;15510;52.512;13.300;2023-05-07T02:29:10;10.10;99.90
28244;DHT22;15510;52.512;13.300;2023-05-07T02:31:37;10.20;99.90
28244;DHT22;15510;52.512;13.300;2023-05-07T02:34:03;10.10;99.90
28244;DHT22;15510;52.512;13.300;2023-05-07T02:36:29;10.10;99.90
28244;DHT22;15510;52.512;13.300;2023-05-07T02:39:03;10.20;99.90
28244;DHT22;15510;52.512;13.300;2023-05-07T02:41:29;10.20;99.90
28244;DHT22;15510;52.512;13.300;2023-05-07T02:43:55;10.10;99.90
28244;DHT22;15510;52.512;13.300;2023-05-07T02:46:22;10.20;99.90
28244;DHT22;15510;52.512;13.300;2023-05-07T02:48:58;10.30;99.90
28244;DHT22;15510;52.512;13.300;2023-05-07T02:51:25;10.20;99.90
28244;DHT22;15510;52.512;13.300;2023-05-07T02:53:55;10.30;99.90
28244;DHT22;15510;52.512;13.300;2023-05-07T02:56:21;10.20;99.90
28244;DHT22;15510;52.512;13.300;2023-05-07T02:58:47;10.10;99.90
28244;DHT22;15510;52.512;13.300;2023-05-07T03:01:15;10.20;99.90
28244;DHT22;15510;52.512;13.300;2023-05-07T03:03:52;10.20;99.90
28244;DHT22;15510;52.512;13.300;2023-05-07T03:06:20;10.30;99.90
28244;DHT22;15510;52.512;13.300;2023-05-07T03:08:50;10.30;99.90
28244;DHT22;15510;52.512;13.300;2023-05-07T03:11:22;10.30;99.90
28244;DHT22;15510;52.512;13.300;2023-05-07T03:13:51;10.30;99.90
28244;DHT22;15510;52.512;13.300;2023-05-07T03:16:21;10.20;99.90
28244;DHT22;15510;52.512;13.300;2023-05-07T03:18:55;10.20;99.90
28244;DHT22;15510;52.512;13.300;2023-05-07T03:21:24;10.30;99.90
28244;DHT22;15510;52.512;13.300;2023-05-07T03:23:54;10.40;99.90
28244;DHT22;15510;52.512;13.300;2023-05-07T03:26:23;10.40;99.90
28244;DHT22;15510;52.512;13.300;2023-05-07T03:28:52;10.40;99.90
28244;DHT22;15510;52.512;13.300;2023-05-07T03:31:26;10.40;99.90
28244;DHT22;15510;52.512;13.300;2023-05-07T03:33:59;10.40;99.90
28244;DHT22;15510;52.512;13.300;2023-05-07T03:36:30;10.30;99.90
28244;DHT22;15510;52.512;13.300;2023-05-07T03:41:43;10.30;99.90
28244;DHT22;15510;52.512;13.300;2023-05-07T03:44:12;10.30;99.90
28244;DHT22;15510;52.512;13.300;2023-05-07T03:46:41;10.40;99.90
28244;DHT22;15510;52.512;13.300;2023-05-07T03:49:10;10.40;99.90
28244;DHT22;15510;52.512;13.300;2023-05-07T03:51:38;10.40;99.90
28244;DHT22;15510;52.512;13.300;2023-05-07T03:54:12;10.30;99.90
28244;DHT22;15510;52.512;13.300;2023-05-07T03:56:42;10.40;99.90
28244;DHT22;15510;52.512;13.300;2023-05-07T03:59:08;10.50;99.90
28244;DHT22;15510;52.512;13.300;2023-05-07T04:01:34;10.50;99.90
28244;DHT22;15510;52.512;13.300;2023-05-07T04:04:01;10.40;99.90
28244;DHT22;15510;52.512;13.300;2023-05-07T04:06:28;10.40;99.90
28244;DHT22;15510;52.512;13.300;2023-05-07T04:08:54;10.30;99.90
28244;DHT22;15510;52.512;13.300;2023-05-07T04:11:26;10.20;99.90
28244;DHT22;15510;52.512;13.300;2023-05-07T04:13:55;10.20;99.90
28244;DHT22;15510;52.512;13.300;2023-05-07T04:16:23;10.30;99.90
28244;DHT22;15510;52.512;13.300;2023-05-07T04:18:50;10.40;99.90
28244;DHT22;15510;52.512;13.300;2023-05-07T04:21:19;10.40;99.90
28244;DHT22;15510;52.512;13.300;2023-05-07T04:23:50;10.40;99.90
28244;DHT22;15510;52.512;13.300;2023-05-07T04:26:21;10.40;99.90
28244;DHT22;15510;52.512;13.300;2023-05-07T04:28:51;10.30;99.90
28244;DHT22;15510;52.512;13.300;2023-05-07T04:31:17;10.20;99.90
28244;DHT22;15510;52.512;13.300;2023-05-07T04:33:47;10.30;99.90
28244;DHT22;15510;52.512;13.300;2023-05-07T04:36:13;10.40;99.90
28244;DHT22;15510;52.512;13.300;2023-05-07T04:38:48;10.30;99.90
28244;DHT22;15510;52.512;13.300;2023-05-07T04:41:21;10.40;99.90
28244;DHT22;15510;52.512;13.300;2023-05-07T04:43:52;10.40;99.90
28244;DHT22;15510;52.512;13.300;2023-05-07T04:46:20;10.40;99.90
28244;DHT22;15510;52.512;13.300;2023-05-07T04:48:51;10.50;99.90
28244;DHT22;15510;52.512;13.300;2023-05-07T04:51:20;10.50;99.90
28244;DHT22;15510;52.512;13.300;2023-05-07T04:53:49;10.50;99.90
28244;DHT22;15510;52.512;13.300;2023-05-07T04:56:20;10.40;99.90
28244;DHT22;15510;52.512;13.300;2023-05-07T04:58:47;10.50;99.90
28244;DHT22;15510;52.512;13.300;2023-05-07T05:01:19;10.40;99.90
28244;DHT22;15510;52.512;13.300;2023-05-07T05:03:45;10.50;99.90
28244;DHT22;15510;52.512;13.300;2023-05-07T05:06:11;10.60;99.90
28244;DHT22;15510;52.512;13.300;2023-05-07T05:08:38;10.70;99.90
28244;DHT22;15510;52.512;13.300;2023-05-07T05:11:04;10.60;99.90
28244;DHT22;15510;52.512;13.300;2023-05-07T05:13:35;10.70;99.90
28244;DHT22;15510;52.512;13.300;2023-05-07T05:16:08;10.70;99.90
28244;DHT22;15510;52.512;13.300;2023-05-07T05:18:38;10.60;99.90
28244;DHT22;15510;52.512;13.300;2023-05-07T05:21:04;10.50;99.90
28244;DHT22;15510;52.512;13.300;2023-05-07T05:23:32;10.60;99.90
28244;DHT22;15510;52.512;13.300;2023-05-07T05:25:58;10.70;99.90
28244;DHT22;15510;52.512;13.300;2023-05-07T05:28:26;10.90;99.90
28244;DHT22;15510;52.512;13.300;2023-05-07T05:30:53;10.90;99.90
28244;DHT22;15510;52.512;13.300;2023-05-07T05:33:20;10.80;99.90
28244;DHT22;15510;52.512;13.300;2023-05-07T05:35:50;10.80;99.90
28244;DHT22;15510;52.512;13.300;2023-05-07T05:38:16;10.80;99.90
28244;DHT22;15510;52.512;13.300;2023-05-07T05:40:42;10.90;99.90
28244;DHT22;15510;52.512;13.300;2023-05-07T05:43:11;11.00;99.90
28244;DHT22;15510;52.512;13.300;2023-05-07T05:45:38;11.10;99.90
28244;DHT22;15510;52.512;13.300;2023-05-07T05:48:05;11.10;99.90
28244;DHT22;15510;52.512;13.300;2023-05-07T05:50:31;11.10;99.90
28244;DHT22;15510;52.512;13.300;2023-05-07T05:52:58;11.10;99.90
28244;DHT22;15510;52.512;13.300;2023-05-07T05:55:26;11.20;99.90
28244;DHT22;15510;52.512;13.300;2023-05-07T05:57:52;11.00;99.90
28244;DHT22;15510;52.512;13.300;2023-05-07T06:00:19;11.10;99.90
28244;DHT22;15510;52.512;13.300;2023-05-07T06:02:55;11.10;99.90
28244;DHT22;15510;52.512;13.300;2023-05-07T06:05:23;11.30;99.90
28244;DHT22;15510;52.512;13.300;2023-05-07T06:07:52;11.50;99.90
28244;DHT22;15510;52.512;13.300;2023-05-07T06:10:18;11.60;99.90
28244;DHT22;15510;52.512;13.300;2023-05-07T06:12:44;11.60;99.90
28244;DHT22;15510;52.512;13.300;2023-05-07T06:15:10;11.50;99.90
28244;DHT22;15510;52.512;13.300;2023-05-07T06:17:37;11.40;99.90
28244;DHT22;15510;52.512;13.300;2023-05-07T06:20:04;11.40;99.90
28244;DHT22;15510;52.512;13.300;2023-05-07T06:22:29;11.40;99.90
28244;DHT22;15510;52.512;13.300;2023-05-07T06:24:55;11.40;99.90
28244;DHT22;15510;52.512;13.300;2023-05-07T06:27:22;11.50;99.90
28244;DHT22;15510;52.512;13.300;2023-05-07T06:29:48;11.50;99.90
28244;DHT22;15510;52.512;13.300;2023-05-07T06:32:16;11.50;99.90
28244;DHT22;15510;52.512;13.300;2023-05-07T06:34:44;11.50;99.90
28244;DHT22;15510;52.512;13.300;2023-05-07T06:37:10;11.60;99.90
28244;DHT22;15510;52.512;13.300;2023-05-07T06:39:56;11.80;99.90
28244;DHT22;15510;52.512;13.300;2023-05-07T06:42:22;11.70;99.90
28244;DHT22;15510;52.512;13.300;2023-05-07T06:44:49;11.70;99.90
28244;DHT22;15510;52.512;13.300;2023-05-07T06:47:17;11.90;99.90
28244;DHT22;15510;52.512;13.300;2023-05-07T06:49:45;12.00;99.90
28244;DHT22;15510;52.512;13.300;2023-05-07T06:52:15;12.10;99.90
28244;DHT22;15510;52.512;13.300;2023-05-07T06:54:41;12.20;99.90
28244;DHT22;15510;52.512;13.300;2023-05-07T06:57:11;12.00;99.90
28244;DHT22;15510;52.512;13.300;2023-05-07T06:59:37;11.90;99.90
28244;DHT22;15510;52.512;13.300;2023-05-07T07:02:03;11.80;99.90
28244;DHT22;15510;52.512;13.300;2023-05-07T07:04:29;11.80;99.90
28244;DHT22;15510;52.512;13.300;2023-05-07T07:07:01;11.80;99.90
28244;DHT22;15510;52.512;13.300;2023-05-07T07:09:28;11.80;99.90
28244;DHT22;15510;52.512;13.300;2023-05-07T07:11:54;12.00;99.90
28244;DHT22;15510;52.512;13.300;2023-05-07T07:14:21;12.00;99.90
28244;DHT22;15510;52.512;13.300;2023-05-07T07:16:50;12.20;99.90
28244;DHT22;15510;52.512;13.300;2023-05-07T07:19:20;12.50;99.90
28244;DHT22;15510;52.512;13.300;2023-05-07T07:21:51;12.60;99.90
28244;DHT22;15510;52.512;13.300;2023-05-07T07:24:17;12.80;99.90
28244;DHT22;15510;52.512;13.300;2023-05-07T07:26:48;12.80;99.90
28244;DHT22;15510;52.512;13.300;2023-05-07T07:29:20;12.90;99.90
28244;DHT22;15510;52.512;13.300;2023-05-07T07:31:48;13.00;99.90
28244;DHT22;15510;52.512;13.300;2023-05-07T07:34:17;13.10;99.90
28244;DHT22;15510;52.512;13.300;2023-05-07T07:36:46;13.10;99.90
28244;DHT22;15510;52.512;13.300;2023-05-07T07:39:17;12.80;99.90
28244;DHT22;15510;52.512;13.300;2023-05-07T07:41:44;12.70;99.90
28244;DHT22;15510;52.512;13.300;2023-05-07T07:44:14;12.80;99.90
28244;DHT22;15510;52.512;13.300;2023-05-07T07:46:40;12.70;99.90
28244;DHT22;15510;52.512;13.300;2023-05-07T07:49:08;12.70;99.90
28244;DHT22;15510;52.512;13.300;2023-05-07T07:51:35;12.60;99.90
28244;DHT22;15510;52.512;13.300;2023-05-07T07:54:01;12.80;99.90
28244;DHT22;15510;52.512;13.300;2023-05-07T07:56:31;13.00;99.90
28244;DHT22;15510;52.512;13.300;2023-05-07T07:58:57;13.20;99.90
28244;DHT22;15510;52.512;13.300;2023-05-07T08:01:23;13.30;99.90
28244;DHT22;15510;52.512;13.300;2023-05-07T08:03:49;13.40;99.90
28244;DHT22;15510;52.512;13.300;2023-05-07T08:06:15;13.50;99.90
28244;DHT22;15510;52.512;13.300;2023-05-07T08:08:41;13.40;99.90
28244;DHT22;15510;52.512;13.300;2023-05-07T08:11:08;13.40;99.90
28244;DHT22;15510;52.512;13.300;2023-05-07T08:13:36;13.50;99.90
28244;DHT22;15510;52.512;13.300;2023-05-07T08:16:02;13.40;99.90
28244;DHT22;15510;52.512;13.300;2023-05-07T08:18:28;13.50;99.90
28244;DHT22;15510;52.512;13.300;2023-05-07T08:20:56;13.60;99.90
28244;DHT22;15510;52.512;13.300;2023-05-07T08:23:25;13.70;99.90
28244;DHT22;15510;52.512;13.300;2023-05-07T08:25:50;13.90;99.90
28244;DHT22;15510;52.512;13.300;2023-05-07T08:28:19;14.00;99.90
28244;DHT22;15510;52.512;13.300;2023-05-07T08:30:53;14.00;99.90
28244;DHT22;15510;52.512;13.300;2023-05-07T08:33:19;14.00;99.90
28244;DHT22;15510;52.512;13.300;2023-05-07T08:35:45;14.10;99.90
28244;DHT22;15510;52.512;13.300;2023-05-07T08:38:13;14.10;99.90
28244;DHT22;15510;52.512;13.300;2023-05-07T08:40:39;14.30;99.90
28244;DHT22;15510;52.512;13.300;2023-05-07T08:43:14;14.40;99.90
28244;DHT22;15510;52.512;13.300;2023-05-07T08:45:42;14.50;99.90
28244;DHT22;15510;52.512;13.300;2023-05-07T08:48:17;14.50;99.90
28244;DHT22;15510;52.512;13.300;2023-05-07T08:50:48;14.60;99.90
28244;DHT22;15510;52.512;13.300;2023-05-07T08:53:16;14.70;99.90
28244;DHT22;15510;52.512;13.300;2023-05-07T08:55:42;14.70;99.90
28244;DHT22;15510;52.512;13.300;2023-05-07T08:58:09;14.80;99.90
28244;DHT22;15510;52.512;13.300;2023-05-07T09:01:08;14.90;99.90
28244;DHT22;15510;52.512;13.300;2023-05-07T09:03:34;15.00;99.90
28244;DHT22;15510;52.512;13.300;2023-05-07T09:06:00;14.90;99.90
28244;DHT22;15510;52.512;13.300;2023-05-07T09:08:28;15.00;99.90
28244;DHT22;15510;52.512;13.300;2023-05-07T09:10:56;15.00;99.90
28244;DHT22;15510;52.512;13.300;2023-05-07T09:13:36;14.90;99.90
28244;DHT22;15510;52.512;13.300;2023-05-07T09:16:12;14.60;99.90
28244;DHT22;15510;52.512;13.300;2023-05-07T09:18:43;14.50;99.90
28244;DHT22;15510;52.512;13.300;2023-05-07T09:21:15;14.60;99.90
28244;DHT22;15510;52.512;13.300;2023-05-07T09:23:41;14.90;99.90
28244;DHT22;15510;52.512;13.300;2023-05-07T09:26:08;15.10;99.90
28244;DHT22;15510;52.512;13.300;2023-05-07T09:28:39;15.20;99.90
28244;DHT22;15510;52.512;13.300;2023-05-07T09:31:09;15.20;99.90
28244;DHT22;15510;52.512;13.300;2023-05-07T09:33:35;15.30;99.90
28244;DHT22;15510;52.512;13.300;2023-05-07T09:36:07;15.50;99.90
28244;DHT22;15510;52.512;13.300;2023-05-07T09:38:36;15.50;99.90
28244;DHT22;15510;52.512;13.300;2023-05-07T09:41:07;15.50;99.90
28244;DHT22;15510;52.512;13.300;2023-05-07T09:43:40;15.50;99.90
28244;DHT22;15510;52.512;13.300;2023-05-07T09:46:12;15.40;99.90
28244;DHT22;15510;52.512;13.300;2023-05-07T09:48:48;15.40;99.90
28244;DHT22;15510;52.512;13.300;2023-05-07T09:51:33;15.70;99.90
28244;DHT22;15510;52.512;13.300;2023-05-07T09:54:04;15.90;99.90
28244;DHT22;15510;52.512;13.300;2023-05-07T09:56:33;16.10;99.90
28244;DHT22;15510;52.512;13.300;2023-05-07T09:59:00;16.30;99.90
28244;DHT22;15510;52.512;13.300;2023-05-07T10:01:31;16.50;99.90
28244;DHT22;15510;52.512;13.300;2023-05-07T10:03:58;16.50;99.90
28244;DHT22;15510;52.512;13.300;2023-05-07T10:06:25;16.40;99.90
28244;DHT22;15510;52.512;13.300;2023-05-07T10:08:52;16.40;99.90
28244;DHT22;15510;52.512;13.300;2023-05-07T10:11:18;16.30;99.90
28244;DHT22;15510;52.512;13.300;2023-05-07T10:13:46;16.60;99.90
28244;DHT22;15510;52.512;13.300;2023-05-07T10:16:13;16.90;99.90
28244;DHT22;15510;52.512;13.300;2023-05-07T10:18:44;16.90;99.90
28244;DHT22;15510;52.512;13.300;2023-05-07T10:21:18;16.50;99.90
28244;DHT22;15510;52.512;13.300;2023-05-07T10:23:54;16.50;99.90
28244;DHT22;15510;52.512;13.300;2023-05-07T10:26:23;16.60;99.90
28244;DHT22;15510;52.512;13.300;2023-05-07T10:28:59;16.60;99.90
28244;DHT22;15510;52.512;13.300;2023-05-07T10:34:23;16.80;99.90
28244;DHT22;15510;52.512;13.300;2023-05-07T10:36:54;16.80;99.90
28244;DHT22;15510;52.512;13.300;2023-05-07T10:39:23;16.80;99.90
28244;DHT22;15510;52.512;13.300;2023-05-07T10:41:49;16.90;99.90
28244;DHT22;15510;52.512;13.300;2023-05-07T10:44:28;16.90;99.90
28244;DHT22;15510;52.512;13.300;2023-05-07T10:47:05;16.80;99.90
28244;DHT22;15510;52.512;13.300;2023-05-07T10:49:31;16.70;99.90
28244;DHT22;15510;52.512;13.300;2023-05-07T10:54:45;16.30;99.90
28244;DHT22;15510;52.512;13.300;2023-05-07T10:57:32;16.60;99.90
28244;DHT22;15510;52.512;13.300;2023-05-07T11:05:31;18.90;99.90
28244;DHT22;15510;52.512;13.300;2023-05-07T11:08:24;19.40;99.90
28244;DHT22;15510;52.512;13.300;2023-05-07T11:10:57;19.50;99.90
28244;DHT22;15510;52.512;13.300;2023-05-07T11:16:30;20.20;98.10
28244;DHT22;15510;52.512;13.300;2023-05-07T11:19:14;20.90;98.20
28244;DHT22;15510;52.512;13.300;2023-05-07T11:21:44;21.70;93.80
28244;DHT22;15510;52.512;13.300;2023-05-07T11:24:26;21.30;93.10
28244;DHT22;15510;52.512;13.300;2023-05-07T11:26:56;21.10;94.00
28244;DHT22;15510;52.512;13.300;2023-05-07T11:29:24;21.70;92.60
28244;DHT22;15510;52.512;13.300;2023-05-07T11:31:56;22.20;89.60
28244;DHT22;15510;52.512;13.300;2023-05-07T11:34:27;21.70;91.30
28244;DHT22;15510;52.512;13.300;2023-05-07T11:36:55;21.70;90.30
28244;DHT22;15510;52.512;13.300;2023-05-07T11:39:32;22.50;88.70
28244;DHT22;15510;52.512;13.300;2023-05-07T11:41:59;23.60;81.60
28244;DHT22;15510;52.512;13.300;2023-05-07T11:44:38;24.20;76.20
28244;DHT22;15510;52.512;13.300;2023-05-07T11:47:04;24.80;71.60
28244;DHT22;15510;52.512;13.300;2023-05-07T11:49:31;24.90;67.60
28244;DHT22;15510;52.512;13.300;2023-05-07T11:51:56;24.90;67.30
28244;DHT22;15510;52.512;13.300;2023-05-07T11:54:22;24.60;69.10
28244;DHT22;15510;52.512;13.300;2023-05-07T11:56:49;24.70;69.10
28244;DHT22;15510;52.512;13.300;2023-05-07T11:59:17;24.40;69.70
28244;DHT22;15510;52.512;13.300;2023-05-07T12:01:45;23.60;70.70
28244;DHT22;15510;52.512;13.300;2023-05-07T12:04:11;23.40;71.60
28244;DHT22;15510;52.512;13.300;2023-05-07T12:06:39;23.40;72.40
28244;DHT22;15510;52.512;13.300;2023-05-07T12:09:05;23.60;72.80
28244;DHT22;15510;52.512;13.300;2023-05-07T12:11:32;24.10;71.30
28244;DHT22;15510;52.512;13.300;2023-05-07T12:13:59;24.40;70.40
28244;DHT22;15510;52.512;13.300;2023-05-07T12:16:25;25.50;68.10
28244;DHT22;15510;52.512;13.300;2023-05-07T12:18:51;26.50;64.90
28244;DHT22;15510;52.512;13.300;2023-05-07T12:21:18;27.30;59.80
28244;DHT22;15510;52.512;13.300;2023-05-07T12:23:44;28.20;57.40
28244;DHT22;15510;52.512;13.300;2023-05-07T12:26:10;28.70;55.30
28244;DHT22;15510;52.512;13.300;2023-05-07T12:28:37;29.30;53.60
28244;DHT22;15510;52.512;13.300;2023-05-07T12:31:09;29.70;52.10
28244;DHT22;15510;52.512;13.300;2023-05-07T12:33:38;29.20;50.60
28244;DHT22;15510;52.512;13.300;2023-05-07T12:36:06;28.10;51.50
28244;DHT22;15510;52.512;13.300;2023-05-07T12:38:39;25.90;54.10
28244;DHT22;15510;52.512;13.300;2023-05-07T12:41:08;25.70;55.90
28244;DHT22;15510;52.512;13.300;2023-05-07T12:43:34;25.70;56.20
28244;DHT22;15510;52.512;13.300;2023-05-07T12:46:03;26.50;54.30
28244;DHT22;15510;52.512;13.300;2023-05-07T12:48:29;26.50;54.30
28244;DHT22;15510;52.512;13.300;2023-05-07T12:50:57;26.80;53.50
28244;DHT22;15510;52.512;13.300;2023-05-07T12:53:27;27.30;52.50
28244;DHT22;15510;52.512;13.300;2023-05-07T12:55:57;27.80;52.20
28244;DHT22;15510;52.512;13.300;2023-05-07T13:00:51;29.10;49.70
28244;DHT22;15510;52.512;13.300;2023-05-07T13:03:25;29.70;49.10
28244;DHT22;15510;52.512;13.300;2023-05-07T13:05:52;29.80;48.00
28244;DHT22;15510;52.512;13.300;2023-05-07T13:10:51;29.70;47.30
28244;DHT22;15510;52.512;13.300;2023-05-07T13:13:17;29.50;47.10
28244;DHT22;15510;52.512;13.300;2023-05-07T13:15:43;29.10;48.00
28244;DHT22;15510;52.512;13.300;2023-05-07T13:18:09;29.90;47.70
28244;DHT22;15510;52.512;13.300;2023-05-07T13:20:36;30.40;46.50
28244;DHT22;15510;52.512;13.300;2023-05-07T13:23:02;30.70;45.50
28244;DHT22;15510;52.512;13.300;2023-05-07T13:25:32;30.60;44.90
28244;DHT22;15510;52.512;13.300;2023-05-07T13:27:58;30.30;45.40
28244;DHT22;15510;52.512;13.300;2023-05-07T13:30:23;30.10;44.80
28244;DHT22;15510;52.512;13.300;2023-05-07T13:32:49;29.50;44.90
28244;DHT22;15510;52.512;13.300;2023-05-07T13:35:16;28.80;45.30
28244;DHT22;15510;52.512;13.300;2023-05-07T13:37:42;28.50;46.30
28244;DHT22;15510;52.512;13.300;2023-05-07T13:40:08;28.50;46.40
28244;DHT22;15510;52.512;13.300;2023-05-07T13:42:35;28.50;46.40
28244;DHT22;15510;52.512;13.300;2023-05-07T13:45:00;28.30;46.60
28244;DHT22;15510;52.512;13.300;2023-05-07T13:47:31;27.90;46.60
28244;DHT22;15510;52.512;13.300;2023-05-07T13:49:56;27.20;46.90
28244;DHT22;15510;52.512;13.300;2023-05-07T13:52:22;26.60;48.20
28244;DHT22;15510;52.512;13.300;2023-05-07T13:54:48;25.60;49.50
28244;DHT22;15510;52.512;13.300;2023-05-07T13:57:14;25.70;49.80
28244;DHT22;15510;52.512;13.300;2023-05-07T13:59:40;25.50;49.30
28244;DHT22;15510;52.512;13.300;2023-05-07T14:02:06;24.90;50.20
28244;DHT22;15510;52.512;13.300;2023-05-07T14:04:32;24.50;51.50
28244;DHT22;15510;52.512;13.300;2023-05-07T14:06:58;24.80;51.60
28244;DHT22;15510;52.512;13.300;2023-05-07T14:09:24;25.40;51.30
28244;DHT22;15510;52.512;13.300;2023-05-07T14:11:49;26.00;49.90
28244;DHT22;15510;52.512;13.300;2023-05-07T14:14:17;26.40;49.60
28244;DHT22;15510;52.512;13.300;2023-05-07T14:16:44;27.50;48.00
28244;DHT22;15510;52.512;13.300;2023-05-07T14:19:11;28.60;46.10
28244;DHT22;15510;52.512;13.300;2023-05-07T14:21:37;29.80;45.00
28244;DHT22;15510;52.512;13.300;2023-05-07T14:24:03;30.10;44.30
28244;DHT22;15510;52.512;13.300;2023-05-07T14:26:31;30.30;43.00
28244;DHT22;15510;52.512;13.300;2023-05-07T14:28:56;30.00;43.30
28244;DHT22;15510;52.512;13.300;2023-05-07T14:31:24;30.50;43.50
28244;DHT22;15510;52.512;13.300;2023-05-07T14:33:50;29.80;43.50
28244;DHT22;15510;52.512;13.300;2023-05-07T14:36:16;28.30;44.80
28244;DHT22;15510;52.512;13.300;2023-05-07T14:38:46;27.10;45.90
28244;DHT22;15510;52.512;13.300;2023-05-07T14:41:15;25.50;48.10
28244;DHT22;15510;52.512;13.300;2023-05-07T14:43:42;23.80;50.40
28244;DHT22;15510;52.512;13.300;2023-05-07T14:46:12;22.70;52.40
28244;DHT22;15510;52.512;13.300;2023-05-07T14:48:38;22.30;54.00
28244;DHT22;15510;52.512;13.300;2023-05-07T14:51:03;22.00;54.90
28244;DHT22;15510;52.512;13.300;2023-05-07T14:53:29;21.70;56.20
28244;DHT22;15510;52.512;13.300;2023-05-07T14:55:55;21.60;57.80
28244;DHT22;15510;52.512;13.300;2023-05-07T14:58:21;21.50;58.40
28244;DHT22;15510;52.512;13.300;2023-05-07T15:00:47;21.40;60.00
28244;DHT22;15510;52.512;13.300;2023-05-07T15:03:12;21.30;60.60
28244;DHT22;15510;52.512;13.300;2023-05-07T15:05:42;20.70;61.40
28244;DHT22;15510;52.512;13.300;2023-05-07T15:08:08;20.40;62.40
28244;DHT22;15510;52.512;13.300;2023-05-07T15:10:37;20.40;63.20
28244;DHT22;15510;52.512;13.300;2023-05-07T15:13:07;20.10;64.30
28244;DHT22;15510;52.512;13.300;2023-05-07T15:15:33;20.10;66.40
28244;DHT22;15510;52.512;13.300;2023-05-07T15:17:59;20.20;67.00
28244;DHT22;15510;52.512;13.300;2023-05-07T15:20:31;20.20;67.40
28244;DHT22;15510;52.512;13.300;2023-05-07T15:22:57;20.00;68.30
28244;DHT22;15510;52.512;13.300;2023-05-07T15:25:23;19.80;69.20
28244;DHT22;15510;52.512;13.300;2023-05-07T15:27:51;19.40;71.50
28244;DHT22;15510;52.512;13.300;2023-05-07T15:30:18;19.20;73.60
28244;DHT22;15510;52.512;13.300;2023-05-07T15:32:45;19.00;76.40
28244;DHT22;15510;52.512;13.300;2023-05-07T15:35:11;18.90;81.10
28244;DHT22;15510;52.512;13.300;2023-05-07T15:37:37;18.70;79.60
28244;DHT22;15510;52.512;13.300;2023-05-07T15:40:03;18.30;82.60
28244;DHT22;15510;52.512;13.300;2023-05-07T15:42:33;18.30;84.70
28244;DHT22;15510;52.512;13.300;2023-05-07T15:45:00;18.30;85.80
28244;DHT22;15510;52.512;13.300;2023-05-07T15:47:27;18.30;88.60